sensor_id;sensor_type;location;lat;lon;timestamp;temperature;humidity
67799;SHT30;54596;43.216;27.904;2023-12-29T00:00:34;5.81;90.21
67799;SHT30;54596;43.216;27.904;2023-12-29T00:03:00;5.78;90.22
67799;SHT30;54596;43.216;27.904;2023-12-29T00:05:26;5.77;90.25
67799;SHT30;54596;43.216;27.904;2023-12-29T00:07:52;5.75;90.25
67799;SHT30;54596;43.216;27.904;2023-12-29T00:10:18;5.81;90.33
67799;SHT30;54596;43.216;27.904;2023-12-29T00:12:44;5.77;90.32
67799;SHT30;54596;43.216;27.904;2023-12-29T00:15:10;5.77;90.34
67799;SHT30;54596;43.216;27.904;2023-12-29T00:17:35;5.82;90.43
67799;SHT30;54596;43.216;27.904;2023-12-29T00:20:06;5.82;90.33
67799;SHT30;54596;43.216;27.904;2023-12-29T00:22:33;5.82;90.22
67799;SHT30;54596;43.216;27.904;2023-12-29T00:24:59;5.81;90.09
67799;SHT30;54596;43.216;27.904;2023-12-29T00:27:25;5.78;90.01
67799;SHT30;54596;43.216;27.904;2023-12-29T00:29:50;5.81;90.00
67799;SHT30;54596;43.216;27.904;2023-12-29T00:32:16;5.81;90.09
67799;SHT30;54596;43.216;27.904;2023-12-29T00:34:42;5.79;90.14
67799;SHT30;54596;43.216;27.904;2023-12-29T00:37:07;5.82;90.07
67799;SHT30;54596;43.216;27.904;2023-12-29T00:39:34;5.85;90.03
67799;SHT30;54596;43.216;27.904;2023-12-29T00:42:04;5.84;90.04
67799;SHT30;54596;43.216;27.904;2023-12-29T00:44:31;5.82;90.00
67799;SHT30;54596;43.216;27.904;2023-12-29T00:46:57;5.78;89.88
67799;SHT30;54596;43.216;27.904;2023-12-29T00:49:22;5.75;89.97
67799;SHT30;54596;43.216;27.904;2023-12-29T00:51:48;5.75;90.01
67799;SHT30;54596;43.216;27.904;2023-12-29T00:54:14;5.72;89.94
67799;SHT30;54596;43.216;27.904;2023-12-29T00:56:39;5.65;89.84
67799;SHT30;54596;43.216;27.904;2023-12-29T00:59:05;5.61;89.84
67799;SHT30;54596;43.216;27.904;2023-12-29T01:01:34;5.61;89.80
67799;SHT30;54596;43.216;27.904;2023-12-29T01:04:01;5.61;89.72
67799;SHT30;54596;43.216;27.904;2023-12-29T01:06:26;5.53;89.83
67799;SHT30;54596;43.216;27.904;2023-12-29T01:08:52;5.53;89.95
67799;SHT30;54596;43.216;27.904;2023-12-29T01:11:17;5.46;90.03
67799;SHT30;54596;43.216;27.904;2023-12-29T01:13:43;5.43;90.03
67799;SHT30;54596;43.216;27.904;2023-12-29T01:16:08;5.42;90.08
67799;SHT30;54596;43.216;27.904;2023-12-29T01:18:34;5.42;90.12
67799;SHT30;54596;43.216;27.904;2023-12-29T01:21:00;5.36;90.08
67799;SHT30;54596;43.216;27.904;2023-12-29T01:23:25;5.35;89.99
67799;SHT30;54596;43.216;27.904;2023-12-29T01:25:51;5.32;89.88
67799;SHT30;54596;43.216;27.904;2023-12-29T01:28:17;5.29;90.05
67799;SHT30;54596;43.216;27.904;2023-12-29T01:30:43;5.32;89.96
67799;SHT30;54596;43.216;27.904;2023-12-29T01:33:08;5.30;89.92
67799;SHT30;54596;43.216;27.904;2023-12-29T01:35:34;5.29;89.94
67799;SHT30;54596;43.216;27.904;2023-12-29T01:37:59;5.26;89.96
67799;SHT30;54596;43.216;27.904;2023-12-29T01:40:26;5.23;90.04
67799;SHT30;54596;43.216;27.904;2023-12-29T01:42:51;5.20;90.11
67799;SHT30;54596;43.216;27.904;2023-12-29T01:45:22;5.20;89.99
67799;SHT30;54596;43.216;27.904;2023-12-29T01:47:49;5.19;90.02
67799;SHT30;54596;43.216;27.904;2023-12-29T01:50:17;5.16;89.98
67799;SHT30;54596;43.216;27.904;2023-12-29T01:52:43;5.18;89.99
67799;SHT30;54596;43.216;27.904;2023-12-29T01:55:12;5.19;89.95
67799;SHT30;54596;43.216;27.904;2023-12-29T01:57:40;5.15;89.89
67799;SHT30;54596;43.216;27.904;2023-12-29T02:00:07;5.15;89.73
67799;SHT30;54596;43.216;27.904;2023-12-29T02:02:35;5.13;89.68
67799;SHT30;54596;43.216;27.904;2023-12-29T02:05:01;5.16;89.68
67799;SHT30;54596;43.216;27.904;2023-12-29T02:07:27;5.15;89.66
67799;SHT30;54596;43.216;27.904;2023-12-29T02:09:59;5.16;89.66
67799;SHT30;54596;43.216;27.904;2023-12-29T02:12:26;5.16;89.55
67799;SHT30;54596;43.216;27.904;2023-12-29T02:14:52;5.18;89.45
67799;SHT30;54596;43.216;27.904;2023-12-29T02:17:23;5.22;89.34
67799;SHT30;54596;43.216;27.904;2023-12-29T02:19:51;5.20;89.31
67799;SHT30;54596;43.216;27.904;2023-12-29T02:22:17;5.23;89.33
67799;SHT30;54596;43.216;27.904;2023-12-29T02:24:46;5.25;89.46
67799;SHT30;54596;43.216;27.904;2023-12-29T02:29:40;5.33;89.69
67799;SHT30;54596;43.216;27.904;2023-12-29T02:32:11;5.33;89.89
67799;SHT30;54596;43.216;27.904;2023-12-29T02:34:40;5.35;89.87
67799;SHT30;54596;43.216;27.904;2023-12-29T02:37:08;5.37;89.93
67799;SHT30;54596;43.216;27.904;2023-12-29T02:39:34;5.42;89.94
67799;SHT30;54596;43.216;27.904;2023-12-29T02:42:00;5.43;89.99
67799;SHT30;54596;43.216;27.904;2023-12-29T02:44:26;5.48;89.99
67799;SHT30;54596;43.216;27.904;2023-12-29T02:46:51;5.48;89.92
67799;SHT30;54596;43.216;27.904;2023-12-29T02:49:17;5.50;89.81
67799;SHT30;54596;43.216;27.904;2023-12-29T02:51:42;5.50;89.68
67799;SHT30;54596;43.216;27.904;2023-12-29T02:54:10;5.50;89.55
67799;SHT30;54596;43.216;27.904;2023-12-29T02:56:36;5.46;89.44
67799;SHT30;54596;43.216;27.904;2023-12-29T02:59:01;5.44;89.46
67799;SHT30;54596;43.216;27.904;2023-12-29T03:01:27;5.44;89.52
67799;SHT30;54596;43.216;27.904;2023-12-29T03:03:54;5.51;89.69
67799;SHT30;54596;43.216;27.904;2023-12-29T03:06:20;5.53;89.67
67799;SHT30;54596;43.216;27.904;2023-12-29T03:08:45;5.55;89.64
67799;SHT30;54596;43.216;27.904;2023-12-29T03:11:11;5.61;89.29
67799;SHT30;54596;43.216;27.904;2023-12-29T03:13:36;5.64;89.09
67799;SHT30;54596;43.216;27.904;2023-12-29T03:16:02;5.63;88.93
67799;SHT30;54596;43.216;27.904;2023-12-29T03:18:27;5.64;88.89
67799;SHT30;54596;43.216;27.904;2023-12-29T03:20:53;5.64;88.85
67799;SHT30;54596;43.216;27.904;2023-12-29T03:23:18;5.64;88.69
67799;SHT30;54596;43.216;27.904;2023-12-29T03:25:44;5.63;88.61
67799;SHT30;54596;43.216;27.904;2023-12-29T03:28:09;5.63;88.48
67799;SHT30;54596;43.216;27.904;2023-12-29T03:30:35;5.63;88.34
67799;SHT30;54596;43.216;27.904;2023-12-29T03:33:01;5.61;88.38
67799;SHT30;54596;43.216;27.904;2023-12-29T03:35:26;5.57;88.36
67799;SHT30;54596;43.216;27.904;2023-12-29T03:37:52;5.54;88.30
67799;SHT30;54596;43.216;27.904;2023-12-29T03:40:18;5.53;88.20
67799;SHT30;54596;43.216;27.904;2023-12-29T03:42:43;5.50;88.17
67799;SHT30;54596;43.216;27.904;2023-12-29T03:45:09;5.48;88.11
67799;SHT30;54596;43.216;27.904;2023-12-29T03:47:35;5.46;87.87
67799;SHT30;54596;43.216;27.904;2023-12-29T03:50:01;5.40;88.00
67799;SHT30;54596;43.216;27.904;2023-12-29T03:52:26;5.33;88.15
67799;SHT30;54596;43.216;27.904;2023-12-29T03:54:52;5.27;88.16
67799;SHT30;54596;43.216;27.904;2023-12-29T03:57:18;5.27;88.23
67799;SHT30;54596;43.216;27.904;2023-12-29T03:59:43;5.27;88.28
67799;SHT30;54596;43.216;27.904;2023-12-29T04:02:09;5.26;88.21
67799;SHT30;54596;43.216;27.904;2023-12-29T04:04:37;5.27;88.25
67799;SHT30;54596;43.216;27.904;2023-12-29T04:07:04;5.25;88.16
67799;SHT30;54596;43.216;27.904;2023-12-29T04:09:30;5.29;88.25
67799;SHT30;54596;43.216;27.904;2023-12-29T04:11:56;5.26;88.17
67799;SHT30;54596;43.216;27.904;2023-12-29T04:14:21;5.29;88.09
67799;SHT30;54596;43.216;27.904;2023-12-29T04:16:47;5.26;88.07
67799;SHT30;54596;43.216;27.904;2023-12-29T04:19:12;5.30;88.14
67799;SHT30;54596;43.216;27.904;2023-12-29T04:21:38;5.29;88.07
67799;SHT30;54596;43.216;27.904;2023-12-29T04:24:04;5.29;87.91
67799;SHT30;54596;43.216;27.904;2023-12-29T04:26:29;5.33;88.00
67799;SHT30;54596;43.216;27.904;2023-12-29T04:28:55;5.30;87.83
67799;SHT30;54596;43.216;27.904;2023-12-29T04:31:20;5.27;87.75
67799;SHT30;54596;43.216;27.904;2023-12-29T04:33:46;5.29;87.72
67799;SHT30;54596;43.216;27.904;2023-12-29T04:36:12;5.29;87.73
67799;SHT30;54596;43.216;27.904;2023-12-29T04:38:38;5.27;87.70
67799;SHT30;54596;43.216;27.904;2023-12-29T04:41:04;5.23;87.74
67799;SHT30;54596;43.216;27.904;2023-12-29T04:43:30;5.23;87.73
67799;SHT30;54596;43.216;27.904;2023-12-29T04:45:55;5.23;87.75
67799;SHT30;54596;43.216;27.904;2023-12-29T04:48:22;5.20;87.69
67799;SHT30;54596;43.216;27.904;2023-12-29T04:50:47;5.19;87.90
67799;SHT30;54596;43.216;27.904;2023-12-29T04:53:13;5.19;87.89
67799;SHT30;54596;43.216;27.904;2023-12-29T04:55:38;5.15;87.75
67799;SHT30;54596;43.216;27.904;2023-12-29T04:58:04;5.15;87.98
67799;SHT30;54596;43.216;27.904;2023-12-29T05:00:29;5.12;87.95
67799;SHT30;54596;43.216;27.904;2023-12-29T05:02:56;5.09;87.93
67799;SHT30;54596;43.216;27.904;2023-12-29T05:05:22;5.07;87.85
67799;SHT30;54596;43.216;27.904;2023-12-29T05:07:47;5.07;87.80
67799;SHT30;54596;43.216;27.904;2023-12-29T05:10:13;5.01;87.90
67799;SHT30;54596;43.216;27.904;2023-12-29T05:12:38;5.02;87.93
67799;SHT30;54596;43.216;27.904;2023-12-29T05:15:05;4.99;87.97
67799;SHT30;54596;43.216;27.904;2023-12-29T05:17:31;5.02;87.96
67799;SHT30;54596;43.216;27.904;2023-12-29T05:19:56;5.01;87.92
67799;SHT30;54596;43.216;27.904;2023-12-29T05:22:22;4.98;87.84
67799;SHT30;54596;43.216;27.904;2023-12-29T05:24:47;4.94;87.82
67799;SHT30;54596;43.216;27.904;2023-12-29T05:27:13;4.95;87.92
67799;SHT30;54596;43.216;27.904;2023-12-29T05:29:38;4.98;87.90
67799;SHT30;54596;43.216;27.904;2023-12-29T05:32:05;4.95;88.06
67799;SHT30;54596;43.216;27.904;2023-12-29T05:34:31;4.98;88.04
67799;SHT30;54596;43.216;27.904;2023-12-29T05:36:56;4.96;88.02
67799;SHT30;54596;43.216;27.904;2023-12-29T05:39:22;4.95;87.92
67799;SHT30;54596;43.216;27.904;2023-12-29T05:41:48;4.96;87.98
67799;SHT30;54596;43.216;27.904;2023-12-29T05:44:15;4.96;88.07
67799;SHT30;54596;43.216;27.904;2023-12-29T05:46:41;4.98;88.11
67799;SHT30;54596;43.216;27.904;2023-12-29T05:49:06;5.02;88.24
67799;SHT30;54596;43.216;27.904;2023-12-29T05:51:32;5.05;88.33
67799;SHT30;54596;43.216;27.904;2023-12-29T05:53:57;5.04;88.27
67799;SHT30;54596;43.216;27.904;2023-12-29T05:56:23;5.09;88.30
67799;SHT30;54596;43.216;27.904;2023-12-29T05:58:49;5.15;87.98
67799;SHT30;54596;43.216;27.904;2023-12-29T06:01:15;5.19;87.80
67799;SHT30;54596;43.216;27.904;2023-12-29T06:03:40;5.23;87.54
67799;SHT30;54596;43.216;27.904;2023-12-29T06:06:06;5.29;87.34
67799;SHT30;54596;43.216;27.904;2023-12-29T06:08:31;5.33;87.26
67799;SHT30;54596;43.216;27.904;2023-12-29T06:10:57;5.36;87.06
67799;SHT30;54596;43.216;27.904;2023-12-29T06:13:23;5.43;86.85
67799;SHT30;54596;43.216;27.904;2023-12-29T06:15:49;5.50;86.82
67799;SHT30;54596;43.216;27.904;2023-12-29T06:18:14;5.51;86.48
67799;SHT30;54596;43.216;27.904;2023-12-29T06:20:40;5.54;86.42
67799;SHT30;54596;43.216;27.904;2023-12-29T06:23:05;5.60;86.29
67799;SHT30;54596;43.216;27.904;2023-12-29T06:25:31;5.64;86.18
67799;SHT30;54596;43.216;27.904;2023-12-29T06:27:58;5.70;85.84
67799;SHT30;54596;43.216;27.904;2023-12-29T06:30:23;5.74;85.72
67799;SHT30;54596;43.216;27.904;2023-12-29T06:32:49;5.78;85.71
67799;SHT30;54596;43.216;27.904;2023-12-29T06:35:16;5.87;85.60
67799;SHT30;54596;43.216;27.904;2023-12-29T06:37:41;5.95;85.53
67799;SHT30;54596;43.216;27.904;2023-12-29T06:40:07;6.06;85.42
67799;SHT30;54596;43.216;27.904;2023-12-29T06:42:33;6.29;85.00
67799;SHT30;54596;43.216;27.904;2023-12-29T06:45:00;7.03;83.81
67799;SHT30;54596;43.216;27.904;2023-12-29T06:47:28;7.92;81.18
67799;SHT30;54596;43.216;27.904;2023-12-29T06:49:53;8.72;79.13
67799;SHT30;54596;43.216;27.904;2023-12-29T06:52:19;9.39;77.17
67799;SHT30;54596;43.216;27.904;2023-12-29T06:54:45;10.00;75.35
67799;SHT30;54596;43.216;27.904;2023-12-29T06:57:10;10.52;73.71
67799;SHT30;54596;43.216;27.904;2023-12-29T06:59:39;11.00;72.48
67799;SHT30;54596;43.216;27.904;2023-12-29T07:02:05;11.40;71.21
67799;SHT30;54596;43.216;27.904;2023-12-29T07:04:30;11.79;70.15
67799;SHT30;54596;43.216;27.904;2023-12-29T07:06:56;12.21;69.42
67799;SHT30;54596;43.216;27.904;2023-12-29T07:09:22;12.52;68.49
67799;SHT30;54596;43.216;27.904;2023-12-29T07:11:48;12.60;67.43
67799;SHT30;54596;43.216;27.904;2023-12-29T07:14:15;12.86;67.48
67799;SHT30;54596;43.216;27.904;2023-12-29T07:16:41;12.95;66.36
67799;SHT30;54596;43.216;27.904;2023-12-29T07:19:06;12.88;66.24
67799;SHT30;54596;43.216;27.904;2023-12-29T07:21:32;12.76;66.18
67799;SHT30;54596;43.216;27.904;2023-12-29T07:23:57;12.93;66.04
67799;SHT30;54596;43.216;27.904;2023-12-29T07:26:23;13.01;65.98
67799;SHT30;54596;43.216;27.904;2023-12-29T07:28:48;12.88;65.87
67799;SHT30;54596;43.216;27.904;2023-12-29T07:31:22;12.91;65.97
67799;SHT30;54596;43.216;27.904;2023-12-29T07:33:48;13.15;65.86
67799;SHT30;54596;43.216;27.904;2023-12-29T07:36:14;13.12;65.37
67799;SHT30;54596;43.216;27.904;2023-12-29T07:38:39;12.64;66.46
67799;SHT30;54596;43.216;27.904;2023-12-29T07:41:05;13.05;66.41
67799;SHT30;54596;43.216;27.904;2023-12-29T07:43:31;13.39;65.37
67799;SHT30;54596;43.216;27.904;2023-12-29T07:45:57;13.69;64.08
67799;SHT30;54596;43.216;27.904;2023-12-29T07:48:22;13.76;63.76
67799;SHT30;54596;43.216;27.904;2023-12-29T07:50:48;14.12;63.58
67799;SHT30;54596;43.216;27.904;2023-12-29T07:53:14;14.25;63.05
67799;SHT30;54596;43.216;27.904;2023-12-29T07:55:39;14.46;62.40
67799;SHT30;54596;43.216;27.904;2023-12-29T07:58:05;14.59;62.36
67799;SHT30;54596;43.216;27.904;2023-12-29T08:00:31;14.69;62.33
67799;SHT30;54596;43.216;27.904;2023-12-29T08:02:56;14.87;61.64
67799;SHT30;54596;43.216;27.904;2023-12-29T08:05:24;15.32;61.06
67799;SHT30;54596;43.216;27.904;2023-12-29T08:07:50;16.00;59.58
67799;SHT30;54596;43.216;27.904;2023-12-29T08:10:15;16.67;58.35
67799;SHT30;54596;43.216;27.904;2023-12-29T08:12:42;17.12;57.42
67799;SHT30;54596;43.216;27.904;2023-12-29T08:15:08;17.63;56.26
67799;SHT30;54596;43.216;27.904;2023-12-29T08:17:33;18.09;55.51
67799;SHT30;54596;43.216;27.904;2023-12-29T08:19:59;18.15;54.56
67799;SHT30;54596;43.216;27.904;2023-12-29T08:22:25;18.21;54.80
67799;SHT30;54596;43.216;27.904;2023-12-29T08:24:55;18.16;54.37
67799;SHT30;54596;43.216;27.904;2023-12-29T08:27:24;18.61;54.10
67799;SHT30;54596;43.216;27.904;2023-12-29T08:29:53;18.74;53.60
67799;SHT30;54596;43.216;27.904;2023-12-29T08:32:19;18.87;53.41
67799;SHT30;54596;43.216;27.904;2023-12-29T08:34:44;18.95;53.35
67799;SHT30;54596;43.216;27.904;2023-12-29T08:37:10;19.08;52.96
67799;SHT30;54596;43.216;27.904;2023-12-29T08:39:36;19.06;52.98
67799;SHT30;54596;43.216;27.904;2023-12-29T08:42:01;18.94;53.19
67799;SHT30;54596;43.216;27.904;2023-12-29T08:44:27;19.31;52.60
67799;SHT30;54596;43.216;27.904;2023-12-29T08:46:52;19.83;51.86
67799;SHT30;54596;43.216;27.904;2023-12-29T08:49:18;20.23;51.21
67799;SHT30;54596;43.216;27.904;2023-12-29T08:51:44;20.41;50.33
67799;SHT30;54596;43.216;27.904;2023-12-29T08:54:09;20.67;50.09
67799;SHT30;54596;43.216;27.904;2023-12-29T08:56:36;20.60;49.84
67799;SHT30;54596;43.216;27.904;2023-12-29T08:59:02;19.99;50.64
67799;SHT30;54596;43.216;27.904;2023-12-29T09:01:27;19.47;51.77
67799;SHT30;54596;43.216;27.904;2023-12-29T09:03:53;18.92;52.65
67799;SHT30;54596;43.216;27.904;2023-12-29T09:06:19;18.44;53.12
67799;SHT30;54596;43.216;27.904;2023-12-29T09:08:45;17.95;54.46
67799;SHT30;54596;43.216;27.904;2023-12-29T09:11:11;17.49;55.56
67799;SHT30;54596;43.216;27.904;2023-12-29T09:13:37;17.04;56.64
67799;SHT30;54596;43.216;27.904;2023-12-29T09:16:03;16.75;57.85
67799;SHT30;54596;43.216;27.904;2023-12-29T09:18:29;16.46;58.81
67799;SHT30;54596;43.216;27.904;2023-12-29T09:20:54;16.18;59.85
67799;SHT30;54596;43.216;27.904;2023-12-29T09:23:20;15.74;61.60
67799;SHT30;54596;43.216;27.904;2023-12-29T09:25:45;15.61;62.49
67799;SHT30;54596;43.216;27.904;2023-12-29T09:28:12;15.28;63.20
67799;SHT30;54596;43.216;27.904;2023-12-29T09:30:38;15.09;63.51
67799;SHT30;54596;43.216;27.904;2023-12-29T09:33:04;14.98;63.28
67799;SHT30;54596;43.216;27.904;2023-12-29T09:35:30;14.79;63.27
67799;SHT30;54596;43.216;27.904;2023-12-29T09:37:57;14.64;63.19
67799;SHT30;54596;43.216;27.904;2023-12-29T09:40:24;14.52;63.49
67799;SHT30;54596;43.216;27.904;2023-12-29T09:42:49;14.19;63.77
67799;SHT30;54596;43.216;27.904;2023-12-29T09:45:22;13.93;64.39
67799;SHT30;54596;43.216;27.904;2023-12-29T09:47:51;13.63;65.13
67799;SHT30;54596;43.216;27.904;2023-12-29T09:50:18;13.49;65.68
67799;SHT30;54596;43.216;27.904;2023-12-29T09:52:50;13.39;66.15
67799;SHT30;54596;43.216;27.904;2023-12-29T09:55:16;13.36;66.45
67799;SHT30;54596;43.216;27.904;2023-12-29T09:57:43;13.28;66.64
67799;SHT30;54596;43.216;27.904;2023-12-29T10:00:12;13.18;66.99
67799;SHT30;54596;43.216;27.904;2023-12-29T10:02:42;13.14;67.35
67799;SHT30;54596;43.216;27.904;2023-12-29T10:05:08;13.07;67.68
67799;SHT30;54596;43.216;27.904;2023-12-29T10:07:38;13.07;67.85
67799;SHT30;54596;43.216;27.904;2023-12-29T10:10:05;13.05;68.05
67799;SHT30;54596;43.216;27.904;2023-12-29T10:12:38;13.05;67.61
67799;SHT30;54596;43.216;27.904;2023-12-29T10:15:10;13.08;67.49
67799;SHT30;54596;43.216;27.904;2023-12-29T10:20:44;13.18;67.09
67799;SHT30;54596;43.216;27.904;2023-12-29T10:23:14;13.19;66.69
67799;SHT30;54596;43.216;27.904;2023-12-29T10:25:43;13.21;66.77
67799;SHT30;54596;43.216;27.904;2023-12-29T10:28:09;13.29;66.72
67799;SHT30;54596;43.216;27.904;2023-12-29T10:30:35;13.34;66.75
67799;SHT30;54596;43.216;27.904;2023-12-29T10:33:04;13.38;66.43
67799;SHT30;54596;43.216;27.904;2023-12-29T10:35:30;13.43;66.31
67799;SHT30;54596;43.216;27.904;2023-12-29T10:38:11;13.49;66.01
67799;SHT30;54596;43.216;27.904;2023-12-29T10:40:36;13.53;65.98
67799;SHT30;54596;43.216;27.904;2023-12-29T10:43:02;13.57;66.27
67799;SHT30;54596;43.216;27.904;2023-12-29T10:45:33;13.57;66.37
67799;SHT30;54596;43.216;27.904;2023-12-29T10:48:04;13.66;66.20
67799;SHT30;54596;43.216;27.904;2023-12-29T10:50:30;13.69;66.29
67799;SHT30;54596;43.216;27.904;2023-12-29T10:53:12;13.78;65.98
67799;SHT30;54596;43.216;27.904;2023-12-29T10:55:38;13.81;65.90
67799;SHT30;54596;43.216;27.904;2023-12-29T10:58:05;13.88;65.87
67799;SHT30;54596;43.216;27.904;2023-12-29T11:00:31;13.90;65.81
67799;SHT30;54596;43.216;27.904;2023-12-29T11:03:00;13.94;65.66
67799;SHT30;54596;43.216;27.904;2023-12-29T11:05:27;13.97;65.50
67799;SHT30;54596;43.216;27.904;2023-12-29T11:07:54;13.98;65.75
67799;SHT30;54596;43.216;27.904;2023-12-29T11:10:23;14.01;65.92
67799;SHT30;54596;43.216;27.904;2023-12-29T11:12:49;14.07;65.72
67799;SHT30;54596;43.216;27.904;2023-12-29T11:15:15;14.10;65.56
67799;SHT30;54596;43.216;27.904;2023-12-29T11:17:42;14.12;65.55
67799;SHT30;54596;43.216;27.904;2023-12-29T11:20:16;14.12;65.31
67799;SHT30;54596;43.216;27.904;2023-12-29T11:22:43;14.15;65.49
67799;SHT30;54596;43.216;27.904;2023-12-29T11:25:09;14.15;65.65
67799;SHT30;54596;43.216;27.904;2023-12-29T11:27:36;14.21;65.68
67799;SHT30;54596;43.216;27.904;2023-12-29T11:30:03;14.25;65.57
67799;SHT30;54596;43.216;27.904;2023-12-29T11:32:42;14.29;65.69
67799;SHT30;54596;43.216;27.904;2023-12-29T11:35:13;14.29;65.72
67799;SHT30;54596;43.216;27.904;2023-12-29T11:38:59;14.30;65.69
67799;SHT30;54596;43.216;27.904;2023-12-29T11:43:25;14.35;65.56
67799;SHT30;54596;43.216;27.904;2023-12-29T11:45:52;14.37;65.67
67799;SHT30;54596;43.216;27.904;2023-12-29T11:48:58;14.39;65.75
67799;SHT30;54596;43.216;27.904;2023-12-29T11:51:39;14.43;65.55
67799;SHT30;54596;43.216;27.904;2023-12-29T11:54:06;14.46;65.40
67799;SHT30;54596;43.216;27.904;2023-12-29T11:56:39;14.50;65.15
67799;SHT30;54596;43.216;27.904;2023-12-29T11:59:19;14.56;65.03
67799;SHT30;54596;43.216;27.904;2023-12-29T12:01:55;14.59;64.93
67799;SHT30;54596;43.216;27.904;2023-12-29T12:04:40;14.57;65.07
67799;SHT30;54596;43.216;27.904;2023-12-29T12:13:03;14.70;64.84
67799;SHT30;54596;43.216;27.904;2023-12-29T12:15:32;14.71;64.87
67799;SHT30;54596;43.216;27.904;2023-12-29T12:18:01;14.76;64.55
67799;SHT30;54596;43.216;27.904;2023-12-29T12:20:30;14.77;64.41
67799;SHT30;54596;43.216;27.904;2023-12-29T12:23:11;14.80;64.10
67799;SHT30;54596;43.216;27.904;2023-12-29T12:25:39;14.80;63.28
67799;SHT30;54596;43.216;27.904;2023-12-29T12:28:09;14.83;63.39
67799;SHT30;54596;43.216;27.904;2023-12-29T12:30:35;14.87;63.12
67799;SHT30;54596;43.216;27.904;2023-12-29T12:33:02;14.91;62.98
67799;SHT30;54596;43.216;27.904;2023-12-29T12:35:28;14.90;63.02
67799;SHT30;54596;43.216;27.904;2023-12-29T12:38:14;14.88;62.96
67799;SHT30;54596;43.216;27.904;2023-12-29T12:40:46;14.91;62.98
67799;SHT30;54596;43.216;27.904;2023-12-29T12:43:17;14.92;62.55
67799;SHT30;54596;43.216;27.904;2023-12-29T12:45:48;14.92;62.62
67799;SHT30;54596;43.216;27.904;2023-12-29T12:50:54;15.02;62.37
67799;SHT30;54596;43.216;27.904;2023-12-29T12:53:22;15.11;62.46
67799;SHT30;54596;43.216;27.904;2023-12-29T12:55:49;15.08;62.54
67799;SHT30;54596;43.216;27.904;2023-12-29T12:58:18;15.05;62.62
67799;SHT30;54596;43.216;27.904;2023-12-29T13:00:47;15.05;62.63
67799;SHT30;54596;43.216;27.904;2023-12-29T13:03:16;15.04;62.39
67799;SHT30;54596;43.216;27.904;2023-12-29T13:05:42;15.01;62.60
67799;SHT30;54596;43.216;27.904;2023-12-29T13:08:10;14.98;62.73
67799;SHT30;54596;43.216;27.904;2023-12-29T13:10:41;14.99;62.72
67799;SHT30;54596;43.216;27.904;2023-12-29T13:13:08;14.97;62.65
67799;SHT30;54596;43.216;27.904;2023-12-29T13:15:33;14.95;62.72
67799;SHT30;54596;43.216;27.904;2023-12-29T13:17:59;14.94;62.46
67799;SHT30;54596;43.216;27.904;2023-12-29T13:20:24;14.95;62.51
67799;SHT30;54596;43.216;27.904;2023-12-29T13:22:50;14.94;62.60
67799;SHT30;54596;43.216;27.904;2023-12-29T13:25:35;14.95;62.66
67799;SHT30;54596;43.216;27.904;2023-12-29T13:28:00;14.95;62.55
67799;SHT30;54596;43.216;27.904;2023-12-29T13:30:28;14.98;62.55
67799;SHT30;54596;43.216;27.904;2023-12-29T13:32:54;15.02;62.00
67799;SHT30;54596;43.216;27.904;2023-12-29T13:35:33;15.01;61.98
67799;SHT30;54596;43.216;27.904;2023-12-29T13:38:15;15.11;61.51
67799;SHT30;54596;43.216;27.904;2023-12-29T13:40:51;15.18;62.54
67799;SHT30;54596;43.216;27.904;2023-12-29T13:43:19;15.18;62.42
67799;SHT30;54596;43.216;27.904;2023-12-29T13:45:46;15.18;62.89
67799;SHT30;54596;43.216;27.904;2023-12-29T13:48:13;15.15;62.80
67799;SHT30;54596;43.216;27.904;2023-12-29T13:50:44;15.16;61.87
67799;SHT30;54596;43.216;27.904;2023-12-29T13:53:19;15.16;61.94
67799;SHT30;54596;43.216;27.904;2023-12-29T13:55:44;15.15;61.80
67799;SHT30;54596;43.216;27.904;2023-12-29T13:58:11;15.11;61.60
67799;SHT30;54596;43.216;27.904;2023-12-29T14:00:38;15.07;62.09
67799;SHT30;54596;43.216;27.904;2023-12-29T14:03:31;15.04;61.45
67799;SHT30;54596;43.216;27.904;2023-12-29T14:06:03;15.01;61.38
67799;SHT30;54596;43.216;27.904;2023-12-29T14:08:45;15.01;61.86
67799;SHT30;54596;43.216;27.904;2023-12-29T14:11:11;14.97;61.82
67799;SHT30;54596;43.216;27.904;2023-12-29T14:13:44;14.91;61.11
67799;SHT30;54596;43.216;27.904;2023-12-29T14:16:13;14.87;61.25
67799;SHT30;54596;43.216;27.904;2023-12-29T14:24:12;14.73;61.25
67799;SHT30;54596;43.216;27.904;2023-12-29T14:29:26;14.62;61.86
67799;SHT30;54596;43.216;27.904;2023-12-29T14:31:52;14.55;61.98
67799;SHT30;54596;43.216;27.904;2023-12-29T14:34:18;14.47;62.30
67799;SHT30;54596;43.216;27.904;2023-12-29T14:36:44;14.45;62.40
67799;SHT30;54596;43.216;27.904;2023-12-29T14:39:14;14.37;62.66
67799;SHT30;54596;43.216;27.904;2023-12-29T14:41:41;14.32;62.57
67799;SHT30;54596;43.216;27.904;2023-12-29T14:44:07;14.24;62.87
67799;SHT30;54596;43.216;27.904;2023-12-29T14:46:33;14.18;63.01
67799;SHT30;54596;43.216;27.904;2023-12-29T14:49:00;14.12;62.90
67799;SHT30;54596;43.216;27.904;2023-12-29T14:51:25;14.05;63.05
67799;SHT30;54596;43.216;27.904;2023-12-29T14:53:52;14.00;63.23
67799;SHT30;54596;43.216;27.904;2023-12-29T14:56:18;13.94;63.12
67799;SHT30;54596;43.216;27.904;2023-12-29T14:58:44;13.87;63.28
67799;SHT30;54596;43.216;27.904;2023-12-29T15:01:10;13.80;63.37
67799;SHT30;54596;43.216;27.904;2023-12-29T15:03:36;13.76;63.42
67799;SHT30;54596;43.216;27.904;2023-12-29T15:06:03;13.70;63.46
67799;SHT30;54596;43.216;27.904;2023-12-29T15:08:28;13.62;63.65
67799;SHT30;54596;43.216;27.904;2023-12-29T15:11:01;13.63;63.57
67799;SHT30;54596;43.216;27.904;2023-12-29T15:13:27;13.63;63.54
67799;SHT30;54596;43.216;27.904;2023-12-29T15:15:53;13.59;63.67
67799;SHT30;54596;43.216;27.904;2023-12-29T15:18:19;13.55;63.88
67799;SHT30;54596;43.216;27.904;2023-12-29T15:20:45;13.50;64.09
67799;SHT30;54596;43.216;27.904;2023-12-29T15:23:10;13.45;64.19
67799;SHT30;54596;43.216;27.904;2023-12-29T15:25:36;13.39;64.38
67799;SHT30;54596;43.216;27.904;2023-12-29T15:28:04;13.34;64.49
67799;SHT30;54596;43.216;27.904;2023-12-29T15:30:30;13.31;64.72
67799;SHT30;54596;43.216;27.904;2023-12-29T15:32:55;13.28;64.97
67799;SHT30;54596;43.216;27.904;2023-12-29T15:35:21;13.22;64.96
67799;SHT30;54596;43.216;27.904;2023-12-29T15:37:46;13.21;64.89
67799;SHT30;54596;43.216;27.904;2023-12-29T15:40:12;13.15;64.98
67799;SHT30;54596;43.216;27.904;2023-12-29T15:42:37;13.12;65.23
67799;SHT30;54596;43.216;27.904;2023-12-29T15:45:03;13.05;65.51
67799;SHT30;54596;43.216;27.904;2023-12-29T15:47:31;13.03;65.61